sensor_id;sensor_type;location;lat;lon;timestamp;P1;durP1;ratioP1;P2;durP2;ratioP2
944;SDS011;459;48.676;9.034;2022-10-22T00:01:50;1.23;;;0.50;;
944;SDS011;459;48.676;9.034;2022-10-22T00:04:15;1.53;;;0.77;;
944;SDS011;459;48.676;9.034;2022-10-22T00:06:41;1.07;;;0.90;;
944;SDS011;459;48.676;9.034;2022-10-22T00:09:09;0.80;;;0.60;;
944;SDS011;459;48.676;9.034;2022-10-22T00:11:34;0.93;;;0.70;;
944;SDS011;459;48.676;9.034;2022-10-22T00:13:59;0.80;;;0.70;;
944;SDS011;459;48.676;9.034;2022-10-22T00:16:24;0.93;;;0.70;;
944;SDS011;459;48.676;9.034;2022-10-22T00:18:50;0.83;;;0.80;;
944;SDS011;459;48.676;9.034;2022-10-22T00:21:15;1.33;;;0.80;;
944;SDS011;459;48.676;9.034;2022-10-22T00:23:40;1.57;;;0.70;;
944;SDS011;459;48.676;9.034;2022-10-22T00:26:06;1.00;;;0.87;;
944;SDS011;459;48.676;9.034;2022-10-22T00:28:31;1.77;;;0.70;;
944;SDS011;459;48.676;9.034;2022-10-22T00:30:57;1.20;;;0.87;;
944;SDS011;459;48.676;9.034;2022-10-22T00:33:23;1.37;;;1.10;;
944;SDS011;459;48.676;9.034;2022-10-22T00:35:48;0.80;;;0.80;;
944;SDS011;459;48.676;9.034;2022-10-22T00:38:14;1.10;;;0.93;;
944;SDS011;459;48.676;9.034;2022-10-22T00:40:39;0.70;;;0.70;;
944;SDS011;459;48.676;9.034;2022-10-22T00:43:04;1.10;;;0.90;;
944;SDS011;459;48.676;9.034;2022-10-22T00:45:29;0.90;;;0.70;;
944;SDS011;459;48.676;9.034;2022-10-22T00:50:22;2.27;;;0.63;;
944;SDS011;459;48.676;9.034;2022-10-22T00:52:48;1.13;;;0.80;;
944;SDS011;459;48.676;9.034;2022-10-22T00:55:14;0.87;;;0.87;;
944;SDS011;459;48.676;9.034;2022-10-22T00:57:40;1.20;;;1.10;;
944;SDS011;459;48.676;9.034;2022-10-22T01:00:05;2.73;;;1.20;;
944;SDS011;459;48.676;9.034;2022-10-22T01:02:30;1.20;;;0.80;;
944;SDS011;459;48.676;9.034;2022-10-22T01:04:56;1.10;;;1.00;;
944;SDS011;459;48.676;9.034;2022-10-22T01:07:21;1.23;;;0.90;;
944;SDS011;459;48.676;9.034;2022-10-22T01:09:54;2.33;;;0.90;;
944;SDS011;459;48.676;9.034;2022-10-22T01:13:04;4.70;;;1.43;;
944;SDS011;459;48.676;9.034;2022-10-22T01:25:36;1.52;;;0.88;;
944;SDS011;459;48.676;9.034;2022-10-22T01:28:08;2.37;;;1.00;;
944;SDS011;459;48.676;9.034;2022-10-22T01:30:39;1.10;;;1.00;;
944;SDS011;459;48.676;9.034;2022-10-22T01:33:05;2.20;;;1.03;;
944;SDS011;459;48.676;9.034;2022-10-22T01:35:33;0.90;;;0.90;;
944;SDS011;459;48.676;9.034;2022-10-22T01:38:00;1.37;;;1.07;;
944;SDS011;459;48.676;9.034;2022-10-22T01:40:27;1.40;;;1.07;;
944;SDS011;459;48.676;9.034;2022-10-22T01:43:00;2.10;;;0.73;;
944;SDS011;459;48.676;9.034;2022-10-22T01:45:27;3.70;;;1.00;;
944;SDS011;459;48.676;9.034;2022-10-22T01:53:11;0.73;;;0.73;;
944;SDS011;459;48.676;9.034;2022-10-22T02:01:11;1.37;;;1.10;;
944;SDS011;459;48.676;9.034;2022-10-22T02:03:39;1.27;;;1.17;;
944;SDS011;459;48.676;9.034;2022-10-22T02:06:05;2.47;;;1.10;;
944;SDS011;459;48.676;9.034;2022-10-22T02:08:33;1.00;;;0.80;;
944;SDS011;459;48.676;9.034;2022-10-22T02:10:59;1.67;;;1.57;;
944;SDS011;459;48.676;9.034;2022-10-22T02:13:36;1.77;;;1.27;;
944;SDS011;459;48.676;9.034;2022-10-22T02:16:05;1.27;;;0.90;;
944;SDS011;459;48.676;9.034;2022-10-22T02:18:31;1.10;;;1.00;;
944;SDS011;459;48.676;9.034;2022-10-22T02:20:58;4.90;;;1.30;;
944;SDS011;459;48.676;9.034;2022-10-22T02:23:24;2.00;;;1.10;;
944;SDS011;459;48.676;9.034;2022-10-22T02:31:27;0.80;;;0.80;;
944;SDS011;459;48.676;9.034;2022-10-22T02:33:53;1.30;;;0.87;;
944;SDS011;459;48.676;9.034;2022-10-22T02:36:20;2.37;;;0.87;;
944;SDS011;459;48.676;9.034;2022-10-22T02:38:46;2.50;;;0.83;;
944;SDS011;459;48.676;9.034;2022-10-22T02:41:13;1.67;;;1.07;;
944;SDS011;459;48.676;9.034;2022-10-22T02:43:40;2.07;;;0.80;;
944;SDS011;459;48.676;9.034;2022-10-22T02:46:06;1.10;;;1.00;;
944;SDS011;459;48.676;9.034;2022-10-22T02:48:31;2.17;;;1.20;;
944;SDS011;459;48.676;9.034;2022-10-22T02:50:56;0.80;;;0.80;;
944;SDS011;459;48.676;9.034;2022-10-22T02:53:21;1.03;;;1.00;;
944;SDS011;459;48.676;9.034;2022-10-22T02:55:46;0.90;;;0.80;;
944;SDS011;459;48.676;9.034;2022-10-22T02:58:11;4.50;;;1.03;;
944;SDS011;459;48.676;9.034;2022-10-22T03:00:38;2.13;;;0.90;;
944;SDS011;459;48.676;9.034;2022-10-22T03:03:03;1.37;;;0.97;;
944;SDS011;459;48.676;9.034;2022-10-22T03:05:28;2.20;;;1.10;;
944;SDS011;459;48.676;9.034;2022-10-22T03:07:53;1.53;;;0.77;;
944;SDS011;459;48.676;9.034;2022-10-22T03:10:18;0.70;;;0.53;;
944;SDS011;459;48.676;9.034;2022-10-22T03:12:43;0.97;;;0.80;;
944;SDS011;459;48.676;9.034;2022-10-22T03:15:09;0.70;;;0.50;;
944;SDS011;459;48.676;9.034;2022-10-22T03:17:34;0.93;;;0.93;;
944;SDS011;459;48.676;9.034;2022-10-22T03:19:59;0.80;;;0.80;;
944;SDS011;459;48.676;9.034;2022-10-22T03:22:25;1.00;;;0.80;;
944;SDS011;459;48.676;9.034;2022-10-22T03:24:52;2.80;;;0.93;;
944;SDS011;459;48.676;9.034;2022-10-22T03:27:19;1.00;;;0.70;;
944;SDS011;459;48.676;9.034;2022-10-22T03:29:45;2.53;;;1.07;;
944;SDS011;459;48.676;9.034;2022-10-22T03:32:11;0.73;;;0.57;;
944;SDS011;459;48.676;9.034;2022-10-22T03:34:36;1.33;;;0.90;;
944;SDS011;459;48.676;9.034;2022-10-22T03:37:02;1.97;;;1.20;;
944;SDS011;459;48.676;9.034;2022-10-22T03:39:27;2.80;;;0.93;;
944;SDS011;459;48.676;9.034;2022-10-22T03:41:53;0.73;;;0.73;;
944;SDS011;459;48.676;9.034;2022-10-22T03:44:18;2.83;;;1.30;;
944;SDS011;459;48.676;9.034;2022-10-22T03:46:44;4.13;;;1.00;;
944;SDS011;459;48.676;9.034;2022-10-22T03:49:09;1.53;;;1.00;;
944;SDS011;459;48.676;9.034;2022-10-22T03:51:34;0.93;;;0.83;;
944;SDS011;459;48.676;9.034;2022-10-22T03:54:00;2.37;;;0.83;;
944;SDS011;459;48.676;9.034;2022-10-22T03:56:25;3.17;;;0.90;;
944;SDS011;459;48.676;9.034;2022-10-22T03:58:51;0.80;;;0.80;;
944;SDS011;459;48.676;9.034;2022-10-22T04:01:19;1.73;;;1.00;;
944;SDS011;459;48.676;9.034;2022-10-22T04:03:44;0.70;;;0.70;;
944;SDS011;459;48.676;9.034;2022-10-22T04:06:10;0.90;;;0.80;;
944;SDS011;459;48.676;9.034;2022-10-22T04:08:40;1.10;;;1.00;;
944;SDS011;459;48.676;9.034;2022-10-22T04:11:06;2.03;;;1.10;;
944;SDS011;459;48.676;9.034;2022-10-22T04:13:31;3.80;;;1.03;;
944;SDS011;459;48.676;9.034;2022-10-22T04:16:05;2.43;;;1.13;;
944;SDS011;459;48.676;9.034;2022-10-22T04:18:30;1.80;;;0.90;;
944;SDS011;459;48.676;9.034;2022-10-22T04:20:56;0.57;;;0.57;;
944;SDS011;459;48.676;9.034;2022-10-22T04:23:21;2.60;;;0.90;;
944;SDS011;459;48.676;9.034;2022-10-22T04:25:46;1.27;;;0.77;;
944;SDS011;459;48.676;9.034;2022-10-22T04:28:11;1.60;;;0.97;;
944;SDS011;459;48.676;9.034;2022-10-22T04:30:36;0.93;;;0.67;;
944;SDS011;459;48.676;9.034;2022-10-22T04:33:02;0.70;;;0.70;;
944;SDS011;459;48.676;9.034;2022-10-22T04:35:27;0.50;;;0.50;;
944;SDS011;459;48.676;9.034;2022-10-22T04:37:53;1.83;;;1.30;;
944;SDS011;459;48.676;9.034;2022-10-22T04:40:18;1.70;;;0.80;;
944;SDS011;459;48.676;9.034;2022-10-22T04:42:43;1.80;;;0.93;;
944;SDS011;459;48.676;9.034;2022-10-22T04:45:09;2.77;;;1.30;;
944;SDS011;459;48.676;9.034;2022-10-22T04:47:34;1.10;;;0.90;;
944;SDS011;459;48.676;9.034;2022-10-22T04:49:59;1.50;;;0.87;;
944;SDS011;459;48.676;9.034;2022-10-22T04:52:25;0.73;;;0.70;;
944;SDS011;459;48.676;9.034;2022-10-22T04:54:50;1.17;;;1.13;;
944;SDS011;459;48.676;9.034;2022-10-22T04:57:15;1.00;;;0.90;;
944;SDS011;459;48.676;9.034;2022-10-22T04:59:40;1.70;;;1.00;;
944;SDS011;459;48.676;9.034;2022-10-22T05:02:06;0.70;;;0.70;;
944;SDS011;459;48.676;9.034;2022-10-22T05:04:31;1.23;;;1.00;;
944;SDS011;459;48.676;9.034;2022-10-22T05:06:56;2.10;;;1.10;;
944;SDS011;459;48.676;9.034;2022-10-22T05:09:21;1.40;;;1.10;;
944;SDS011;459;48.676;9.034;2022-10-22T05:11:47;1.37;;;0.77;;
944;SDS011;459;48.676;9.034;2022-10-22T05:14:14;1.70;;;0.87;;
944;SDS011;459;48.676;9.034;2022-10-22T05:16:39;0.90;;;0.90;;
944;SDS011;459;48.676;9.034;2022-10-22T05:19:05;1.07;;;0.73;;
944;SDS011;459;48.676;9.034;2022-10-22T05:21:31;0.80;;;0.80;;
944;SDS011;459;48.676;9.034;2022-10-22T05:23:56;0.83;;;0.70;;
944;SDS011;459;48.676;9.034;2022-10-22T05:26:23;1.00;;;0.70;;
944;SDS011;459;48.676;9.034;2022-10-22T05:28:49;1.37;;;0.70;;
944;SDS011;459;48.676;9.034;2022-10-22T05:31:15;0.80;;;0.80;;
944;SDS011;459;48.676;9.034;2022-10-22T05:33:41;0.87;;;0.80;;
944;SDS011;459;48.676;9.034;2022-10-22T05:36:06;0.70;;;0.63;;
944;SDS011;459;48.676;9.034;2022-10-22T05:38:33;1.00;;;0.80;;
944;SDS011;459;48.676;9.034;2022-10-22T05:41:02;1.00;;;0.80;;
944;SDS011;459;48.676;9.034;2022-10-22T05:43:28;0.60;;;0.60;;
944;SDS011;459;48.676;9.034;2022-10-22T05:45:54;3.43;;;0.97;;
944;SDS011;459;48.676;9.034;2022-10-22T05:48:19;1.47;;;0.70;;
944;SDS011;459;48.676;9.034;2022-10-22T05:50:45;4.00;;;0.90;;
944;SDS011;459;48.676;9.034;2022-10-22T05:53:14;0.73;;;0.73;;
944;SDS011;459;48.676;9.034;2022-10-22T05:55:39;2.10;;;1.10;;
944;SDS011;459;48.676;9.034;2022-10-22T05:58:05;1.70;;;1.03;;
944;SDS011;459;48.676;9.034;2022-10-22T06:00:30;1.70;;;0.97;;
944;SDS011;459;48.676;9.034;2022-10-22T06:02:55;1.20;;;1.10;;
944;SDS011;459;48.676;9.034;2022-10-22T06:05:21;1.73;;;1.63;;
944;SDS011;459;48.676;9.034;2022-10-22T06:07:46;1.47;;;1.10;;
944;SDS011;459;48.676;9.034;2022-10-22T06:10:14;1.63;;;1.10;;
944;SDS011;459;48.676;9.034;2022-10-22T06:12:40;1.23;;;1.10;;
944;SDS011;459;48.676;9.034;2022-10-22T06:15:06;1.57;;;0.90;;
944;SDS011;459;48.676;9.034;2022-10-22T06:17:31;0.90;;;0.80;;
944;SDS011;459;48.676;9.034;2022-10-22T06:19:56;1.43;;;1.30;;
944;SDS011;459;48.676;9.034;2022-10-22T06:22:22;0.80;;;0.80;;
944;SDS011;459;48.676;9.034;2022-10-22T06:24:47;2.70;;;0.83;;
944;SDS011;459;48.676;9.034;2022-10-22T06:27:12;2.73;;;1.60;;
944;SDS011;459;48.676;9.034;2022-10-22T06:29:37;1.10;;;1.00;;
944;SDS011;459;48.676;9.034;2022-10-22T06:32:02;1.13;;;0.73;;
944;SDS011;459;48.676;9.034;2022-10-22T06:34:28;1.40;;;0.83;;
944;SDS011;459;48.676;9.034;2022-10-22T06:36:53;0.83;;;0.83;;
944;SDS011;459;48.676;9.034;2022-10-22T06:39:18;2.03;;;0.80;;
944;SDS011;459;48.676;9.034;2022-10-22T06:41:44;1.63;;;0.90;;
944;SDS011;459;48.676;9.034;2022-10-22T06:44:13;0.83;;;0.83;;
944;SDS011;459;48.676;9.034;2022-10-22T06:46:39;0.80;;;0.70;;
944;SDS011;459;48.676;9.034;2022-10-22T06:49:04;1.90;;;0.80;;
944;SDS011;459;48.676;9.034;2022-10-22T06:51:30;1.47;;;0.70;;
944;SDS011;459;48.676;9.034;2022-10-22T06:53:55;0.53;;;0.50;;
944;SDS011;459;48.676;9.034;2022-10-22T06:56:22;0.87;;;0.77;;
944;SDS011;459;48.676;9.034;2022-10-22T06:58:51;0.93;;;0.70;;
944;SDS011;459;48.676;9.034;2022-10-22T07:01:17;0.97;;;0.70;;
944;SDS011;459;48.676;9.034;2022-10-22T07:03:43;1.03;;;0.77;;
944;SDS011;459;48.676;9.034;2022-10-22T07:06:09;1.77;;;1.10;;
944;SDS011;459;48.676;9.034;2022-10-22T07:08:35;2.03;;;1.57;;
944;SDS011;459;48.676;9.034;2022-10-22T07:11:07;4.83;;;1.40;;
944;SDS011;459;48.676;9.034;2022-10-22T07:13:32;1.10;;;0.80;;
944;SDS011;459;48.676;9.034;2022-10-22T07:15:58;1.03;;;0.90;;
944;SDS011;459;48.676;9.034;2022-10-22T07:18:23;1.00;;;0.93;;
944;SDS011;459;48.676;9.034;2022-10-22T07:20:49;1.40;;;0.93;;
944;SDS011;459;48.676;9.034;2022-10-22T07:23:15;1.50;;;1.10;;
944;SDS011;459;48.676;9.034;2022-10-22T07:25:40;1.33;;;1.00;;
944;SDS011;459;48.676;9.034;2022-10-22T07:28:05;1.70;;;1.30;;
944;SDS011;459;48.676;9.034;2022-10-22T07:30:31;1.00;;;0.90;;
944;SDS011;459;48.676;9.034;2022-10-22T07:32:56;1.07;;;0.97;;
944;SDS011;459;48.676;9.034;2022-10-22T07:35:21;1.10;;;1.10;;
944;SDS011;459;48.676;9.034;2022-10-22T07:37:46;1.63;;;1.33;;
944;SDS011;459;48.676;9.034;2022-10-22T07:40:11;1.60;;;1.50;;
944;SDS011;459;48.676;9.034;2022-10-22T07:42:36;1.77;;;1.40;;
944;SDS011;459;48.676;9.034;2022-10-22T07:45:02;2.83;;;1.30;;
944;SDS011;459;48.676;9.034;2022-10-22T07:47:27;2.00;;;1.40;;
944;SDS011;459;48.676;9.034;2022-10-22T07:49:52;1.80;;;1.10;;
944;SDS011;459;48.676;9.034;2022-10-22T07:52:17;1.40;;;1.30;;
944;SDS011;459;48.676;9.034;2022-10-22T07:54:43;1.47;;;1.20;;
944;SDS011;459;48.676;9.034;2022-10-22T07:57:08;1.70;;;1.43;;
944;SDS011;459;48.676;9.034;2022-10-22T07:59:33;1.47;;;1.13;;
944;SDS011;459;48.676;9.034;2022-10-22T08:01:58;1.70;;;1.60;;
944;SDS011;459;48.676;9.034;2022-10-22T08:04:23;1.67;;;1.50;;
944;SDS011;459;48.676;9.034;2022-10-22T08:06:49;2.17;;;1.30;;
944;SDS011;459;48.676;9.034;2022-10-22T08:09:14;1.20;;;1.10;;
944;SDS011;459;48.676;9.034;2022-10-22T08:11:39;1.53;;;1.43;;
944;SDS011;459;48.676;9.034;2022-10-22T08:14:04;1.43;;;1.07;;
944;SDS011;459;48.676;9.034;2022-10-22T08:16:29;1.87;;;1.60;;
944;SDS011;459;48.676;9.034;2022-10-22T08:18:55;1.10;;;1.00;;
944;SDS011;459;48.676;9.034;2022-10-22T08:21:20;1.80;;;1.70;;
944;SDS011;459;48.676;9.034;2022-10-22T08:23:45;1.87;;;1.73;;
944;SDS011;459;48.676;9.034;2022-10-22T08:26:10;3.80;;;2.00;;
944;SDS011;459;48.676;9.034;2022-10-22T08:28:36;2.00;;;1.40;;
944;SDS011;459;48.676;9.034;2022-10-22T08:31:04;2.43;;;1.80;;
944;SDS011;459;48.676;9.034;2022-10-22T08:33:30;2.00;;;1.80;;
944;SDS011;459;48.676;9.034;2022-10-22T08:35:55;2.80;;;1.93;;
944;SDS011;459;48.676;9.034;2022-10-22T08:38:20;1.87;;;1.77;;
944;SDS011;459;48.676;9.034;2022-10-22T08:40:56;3.30;;;3.00;;
944;SDS011;459;48.676;9.034;2022-10-22T08:45:56;6.63;;;2.93;;
944;SDS011;459;48.676;9.034;2022-10-22T08:51:06;1.90;;;1.53;;
944;SDS011;459;48.676;9.034;2022-10-22T08:56:00;1.60;;;1.20;;
944;SDS011;459;48.676;9.034;2022-10-22T08:58:46;2.80;;;1.40;;
944;SDS011;459;48.676;9.034;2022-10-22T09:01:55;2.00;;;1.50;;
944;SDS011;459;48.676;9.034;2022-10-22T09:04:10;1.70;;;1.50;;
944;SDS011;459;48.676;9.034;2022-10-22T09:06:36;1.97;;;1.20;;
944;SDS011;459;48.676;9.034;2022-10-22T09:09:08;17.77;;;1.83;;
944;SDS011;459;48.676;9.034;2022-10-22T09:11:35;1.70;;;1.50;;
944;SDS011;459;48.676;9.034;2022-10-22T09:14:01;1.50;;;1.40;;
944;SDS011;459;48.676;9.034;2022-10-22T09:16:35;3.10;;;1.20;;
944;SDS011;459;48.676;9.034;2022-10-22T09:21:47;1.50;;;0.80;;
944;SDS011;459;48.676;9.034;2022-10-22T09:24:35;1.47;;;0.90;;
944;SDS011;459;48.676;9.034;2022-10-22T09:27:01;2.27;;;0.70;;
944;SDS011;459;48.676;9.034;2022-10-22T09:29:32;1.30;;;1.00;;
944;SDS011;459;48.676;9.034;2022-10-22T09:31:57;1.87;;;0.90;;
944;SDS011;459;48.676;9.034;2022-10-22T09:34:23;1.43;;;1.10;;
944;SDS011;459;48.676;9.034;2022-10-22T09:37:04;2.33;;;1.07;;
944;SDS011;459;48.676;9.034;2022-10-22T09:39:35;1.60;;;0.90;;
944;SDS011;459;48.676;9.034;2022-10-22T09:42:01;1.10;;;1.00;;
944;SDS011;459;48.676;9.034;2022-10-22T09:44:26;2.10;;;1.10;;
944;SDS011;459;48.676;9.034;2022-10-22T09:46:51;3.93;;;1.30;;
944;SDS011;459;48.676;9.034;2022-10-22T09:49:23;1.73;;;1.03;;
944;SDS011;459;48.676;9.034;2022-10-22T09:52:06;1.50;;;0.93;;
944;SDS011;459;48.676;9.034;2022-10-22T09:54:40;1.67;;;1.27;;
944;SDS011;459;48.676;9.034;2022-10-22T09:59:37;5.77;;;2.43;;
944;SDS011;459;48.676;9.034;2022-10-22T10:02:09;2.33;;;1.10;;
944;SDS011;459;48.676;9.034;2022-10-22T10:04:40;1.57;;;1.00;;
944;SDS011;459;48.676;9.034;2022-10-22T10:07:14;1.37;;;0.80;;
944;SDS011;459;48.676;9.034;2022-10-22T10:09:39;1.10;;;0.90;;
944;SDS011;459;48.676;9.034;2022-10-22T10:17:37;2.03;;;1.30;;
944;SDS011;459;48.676;9.034;2022-10-22T10:22:59;2.30;;;1.20;;
944;SDS011;459;48.676;9.034;2022-10-22T10:30:50;1.57;;;1.00;;
944;SDS011;459;48.676;9.034;2022-10-22T10:35:50;1.57;;;1.27;;
944;SDS011;459;48.676;9.034;2022-10-22T10:38:39;1.10;;;0.90;;
944;SDS011;459;48.676;9.034;2022-10-22T10:49:00;2.53;;;1.30;;
944;SDS011;459;48.676;9.034;2022-10-22T10:51:41;1.83;;;1.30;;
944;SDS011;459;48.676;9.034;2022-10-22T10:56:41;2.53;;;1.40;;
944;SDS011;459;48.676;9.034;2022-10-22T10:59:22;2.47;;;1.20;;
944;SDS011;459;48.676;9.034;2022-10-22T11:04:38;1.40;;;1.10;;
944;SDS011;459;48.676;9.034;2022-10-22T11:07:06;3.53;;;1.00;;
944;SDS011;459;48.676;9.034;2022-10-22T11:09:35;1.60;;;1.40;;
944;SDS011;459;48.676;9.034;2022-10-22T11:12:03;3.63;;;1.20;;
944;SDS011;459;48.676;9.034;2022-10-22T11:14:40;1.77;;;1.00;;
944;SDS011;459;48.676;9.034;2022-10-22T11:17:13;2.87;;;1.17;;
944;SDS011;459;48.676;9.034;2022-10-22T11:19:43;3.40;;;1.10;;
944;SDS011;459;48.676;9.034;2022-10-22T11:22:10;2.93;;;1.00;;
944;SDS011;459;48.676;9.034;2022-10-22T11:27:03;1.73;;;1.30;;
944;SDS011;459;48.676;9.034;2022-10-22T11:29:32;3.00;;;1.00;;
944;SDS011;459;48.676;9.034;2022-10-22T11:31:59;3.63;;;1.23;;
944;SDS011;459;48.676;9.034;2022-10-22T11:34:27;2.23;;;1.00;;
944;SDS011;459;48.676;9.034;2022-10-22T11:36:55;1.83;;;0.60;;
944;SDS011;459;48.676;9.034;2022-10-22T11:39:37;1.60;;;1.07;;
944;SDS011;459;48.676;9.034;2022-10-22T11:42:03;2.53;;;1.70;;
944;SDS011;459;48.676;9.034;2022-10-22T11:44:30;5.53;;;0.97;;
944;SDS011;459;48.676;9.034;2022-10-22T11:47:08;3.70;;;1.10;;
944;SDS011;459;48.676;9.034;2022-10-22T11:49:43;2.60;;;1.90;;
944;SDS011;459;48.676;9.034;2022-10-22T11:57:50;4.23;;;1.30;;
944;SDS011;459;48.676;9.034;2022-10-22T12:03:03;2.53;;;1.20;;
944;SDS011;459;48.676;9.034;2022-10-22T12:05:39;2.53;;;1.10;;
944;SDS011;459;48.676;9.034;2022-10-22T12:10:35;2.00;;;0.93;;
944;SDS011;459;48.676;9.034;2022-10-22T12:13:14;5.13;;;1.20;;
944;SDS011;459;48.676;9.034;2022-10-22T12:15:46;4.63;;;1.00;;
944;SDS011;459;48.676;9.034;2022-10-22T12:18:11;4.10;;;1.57;;
944;SDS011;459;48.676;9.034;2022-10-22T12:20:37;1.13;;;0.80;;
944;SDS011;459;48.676;9.034;2022-10-22T12:23:02;3.13;;;1.00;;
944;SDS011;459;48.676;9.034;2022-10-22T12:25:29;4.80;;;1.17;;
944;SDS011;459;48.676;9.034;2022-10-22T12:27:55;2.50;;;1.03;;
944;SDS011;459;48.676;9.034;2022-10-22T12:30:31;1.40;;;0.97;;
944;SDS011;459;48.676;9.034;2022-10-22T12:32:59;1.57;;;0.93;;
944;SDS011;459;48.676;9.034;2022-10-22T12:35:25;1.83;;;1.10;;
944;SDS011;459;48.676;9.034;2022-10-22T12:37:51;2.83;;;1.17;;
944;SDS011;459;48.676;9.034;2022-10-22T12:40:19;1.50;;;0.83;;
944;SDS011;459;48.676;9.034;2022-10-22T12:42:46;1.93;;;1.00;;
944;SDS011;459;48.676;9.034;2022-10-22T12:45:11;1.20;;;0.83;;
944;SDS011;459;48.676;9.034;2022-10-22T12:47:36;3.23;;;1.27;;
944;SDS011;459;48.676;9.034;2022-10-22T12:50:02;2.47;;;1.20;;
944;SDS011;459;48.676;9.034;2022-10-22T12:52:27;2.40;;;1.27;;
944;SDS011;459;48.676;9.034;2022-10-22T12:54:54;4.93;;;0.97;;
944;SDS011;459;48.676;9.034;2022-10-22T12:57:20;4.53;;;1.40;;
944;SDS011;459;48.676;9.034;2022-10-22T12:59:46;6.00;;;1.20;;
944;SDS011;459;48.676;9.034;2022-10-22T13:02:23;1.70;;;0.80;;
944;SDS011;459;48.676;9.034;2022-10-22T13:07:42;2.97;;;1.10;;
944;SDS011;459;48.676;9.034;2022-10-22T13:10:17;3.77;;;1.20;;
944;SDS011;459;48.676;9.034;2022-10-22T13:12:43;3.47;;;1.27;;
944;SDS011;459;48.676;9.034;2022-10-22T13:18:04;1.77;;;1.03;;
944;SDS011;459;48.676;9.034;2022-10-22T13:20:30;1.73;;;1.07;;
944;SDS011;459;48.676;9.034;2022-10-22T13:22:59;1.57;;;0.70;;
944;SDS011;459;48.676;9.034;2022-10-22T13:25:34;1.93;;;1.10;;
944;SDS011;459;48.676;9.034;2022-10-22T13:30:30;2.60;;;1.20;;
944;SDS011;459;48.676;9.034;2022-10-22T13:32:59;2.20;;;1.20;;
944;SDS011;459;48.676;9.034;2022-10-22T13:35:28;6.10;;;1.77;;
944;SDS011;459;48.676;9.034;2022-10-22T13:37:56;2.27;;;0.83;;
944;SDS011;459;48.676;9.034;2022-10-22T13:40:21;3.03;;;1.03;;
944;SDS011;459;48.676;9.034;2022-10-22T13:42:47;1.10;;;0.80;;
944;SDS011;459;48.676;9.034;2022-10-22T13:45:13;2.00;;;0.90;;
944;SDS011;459;48.676;9.034;2022-10-22T13:47:38;2.23;;;0.70;;
944;SDS011;459;48.676;9.034;2022-10-22T13:50:06;2.00;;;0.90;;
944;SDS011;459;48.676;9.034;2022-10-22T13:52:37;3.10;;;0.73;;
944;SDS011;459;48.676;9.034;2022-10-22T13:55:17;1.80;;;0.90;;
944;SDS011;459;48.676;9.034;2022-10-22T13:57:42;3.57;;;1.17;;
944;SDS011;459;48.676;9.034;2022-10-22T14:00:10;2.60;;;1.10;;
944;SDS011;459;48.676;9.034;2022-10-22T14:02:35;3.20;;;1.10;;
944;SDS011;459;48.676;9.034;2022-10-22T14:05:00;1.83;;;0.97;;
944;SDS011;459;48.676;9.034;2022-10-22T14:07:28;1.57;;;0.83;;
944;SDS011;459;48.676;9.034;2022-10-22T14:09:53;1.73;;;1.03;;
944;SDS011;459;48.676;9.034;2022-10-22T14:12:18;2.60;;;0.83;;
944;SDS011;459;48.676;9.034;2022-10-22T14:14:44;2.87;;;1.10;;
944;SDS011;459;48.676;9.034;2022-10-22T14:17:10;2.10;;;0.90;;
944;SDS011;459;48.676;9.034;2022-10-22T14:19:36;1.20;;;0.90;;
944;SDS011;459;48.676;9.034;2022-10-22T14:22:02;1.63;;;1.00;;
944;SDS011;459;48.676;9.034;2022-10-22T14:24:27;2.17;;;0.90;;
944;SDS011;459;48.676;9.034;2022-10-22T14:26:52;1.70;;;0.70;;
944;SDS011;459;48.676;9.034;2022-10-22T14:29:17;2.70;;;1.10;;
944;SDS011;459;48.676;9.034;2022-10-22T14:31:43;2.37;;;0.93;;
944;SDS011;459;48.676;9.034;2022-10-22T14:34:09;2.67;;;1.10;;
944;SDS011;459;48.676;9.034;2022-10-22T14:36:34;2.20;;;0.80;;
944;SDS011;459;48.676;9.034;2022-10-22T14:38:59;1.20;;;1.10;;
944;SDS011;459;48.676;9.034;2022-10-22T14:41:24;2.90;;;1.10;;
944;SDS011;459;48.676;9.034;2022-10-22T14:43:52;1.87;;;0.90;;
944;SDS011;459;48.676;9.034;2022-10-22T14:46:18;2.43;;;1.00;;
944;SDS011;459;48.676;9.034;2022-10-22T14:48:44;2.47;;;1.20;;
944;SDS011;459;48.676;9.034;2022-10-22T14:51:13;1.83;;;0.80;;
944;SDS011;459;48.676;9.034;2022-10-22T14:53:38;1.63;;;0.80;;
944;SDS011;459;48.676;9.034;2022-10-22T14:56:03;1.50;;;0.63;;
944;SDS011;459;48.676;9.034;2022-10-22T14:58:29;2.10;;;1.10;;
944;SDS011;459;48.676;9.034;2022-10-22T15:00:54;3.13;;;1.20;;
944;SDS011;459;48.676;9.034;2022-10-22T15:03:19;2.13;;;1.00;;
944;SDS011;459;48.676;9.034;2022-10-22T15:05:45;4.23;;;1.00;;
944;SDS011;459;48.676;9.034;2022-10-22T15:08:10;2.13;;;0.87;;
944;SDS011;459;48.676;9.034;2022-10-22T15:10:36;1.97;;;0.83;;
944;SDS011;459;48.676;9.034;2022-10-22T15:13:01;3.17;;;1.20;;
944;SDS011;459;48.676;9.034;2022-10-22T15:15:26;3.00;;;0.90;;
944;SDS011;459;48.676;9.034;2022-10-22T15:17:51;3.33;;;1.33;;
944;SDS011;459;48.676;9.034;2022-10-22T15:20:16;3.87;;;1.10;;
944;SDS011;459;48.676;9.034;2022-10-22T15:22:42;2.03;;;1.17;;
944;SDS011;459;48.676;9.034;2022-10-22T15:25:07;1.67;;;1.07;;
944;SDS011;459;48.676;9.034;2022-10-22T15:27:33;1.63;;;0.80;;
944;SDS011;459;48.676;9.034;2022-10-22T15:29:58;2.70;;;0.87;;
944;SDS011;459;48.676;9.034;2022-10-22T15:32:24;3.93;;;1.43;;
944;SDS011;459;48.676;9.034;2022-10-22T15:34:51;1.30;;;1.00;;
944;SDS011;459;48.676;9.034;2022-10-22T15:37:16;2.10;;;1.03;;
944;SDS011;459;48.676;9.034;2022-10-22T15:39:41;4.87;;;1.50;;
944;SDS011;459;48.676;9.034;2022-10-22T15:42:07;3.20;;;1.77;;
944;SDS011;459;48.676;9.034;2022-10-22T15:44:32;2.70;;;1.33;;
944;SDS011;459;48.676;9.034;2022-10-22T15:46:58;3.73;;;1.87;;
944;SDS011;459;48.676;9.034;2022-10-22T15:49:24;8.10;;;5.23;;
944;SDS011;459;48.676;9.034;2022-10-22T15:51:49;8.17;;;3.63;;
944;SDS011;459;48.676;9.034;2022-10-22T15:54:19;7.27;;;3.07;;
944;SDS011;459;48.676;9.034;2022-10-22T15:56:44;2.60;;;1.90;;
944;SDS011;459;48.676;9.034;2022-10-22T15:59:10;8.80;;;1.97;;
944;SDS011;459;48.676;9.034;2022-10-22T16:01:36;5.93;;;2.63;;
944;SDS011;459;48.676;9.034;2022-10-22T16:04:01;5.83;;;1.80;;
944;SDS011;459;48.676;9.034;2022-10-22T16:06:30;4.23;;;1.40;;
944;SDS011;459;48.676;9.034;2022-10-22T16:08:56;5.07;;;2.23;;
944;SDS011;459;48.676;9.034;2022-10-22T16:11:21;4.33;;;1.63;;
944;SDS011;459;48.676;9.034;2022-10-22T16:13:47;4.00;;;1.60;;
944;SDS011;459;48.676;9.034;2022-10-22T16:16:12;5.10;;;1.30;;
944;SDS011;459;48.676;9.034;2022-10-22T16:18:37;6.53;;;1.53;;
944;SDS011;459;48.676;9.034;2022-10-22T16:21:02;5.07;;;2.17;;
944;SDS011;459;48.676;9.034;2022-10-22T16:23:27;1.87;;;1.33;;
944;SDS011;459;48.676;9.034;2022-10-22T16:25:53;7.13;;;3.13;;
944;SDS011;459;48.676;9.034;2022-10-22T16:28:18;5.43;;;1.43;;
944;SDS011;459;48.676;9.034;2022-10-22T16:30:43;3.20;;;2.00;;
944;SDS011;459;48.676;9.034;2022-10-22T16:33:09;5.37;;;1.97;;
944;SDS011;459;48.676;9.034;2022-10-22T16:35:38;2.20;;;1.20;;
944;SDS011;459;48.676;9.034;2022-10-22T16:38:03;5.00;;;1.90;;
944;SDS011;459;48.676;9.034;2022-10-22T16:40:28;5.03;;;1.60;;
944;SDS011;459;48.676;9.034;2022-10-22T16:42:53;2.17;;;1.70;;
944;SDS011;459;48.676;9.034;2022-10-22T16:45:19;6.57;;;1.60;;
944;SDS011;459;48.676;9.034;2022-10-22T16:47:44;3.87;;;1.90;;
944;SDS011;459;48.676;9.034;2022-10-22T16:50:11;2.60;;;1.80;;
944;SDS011;459;48.676;9.034;2022-10-22T16:52:36;4.77;;;2.83;;
944;SDS011;459;48.676;9.034;2022-10-22T16:55:02;6.97;;;3.60;;
944;SDS011;459;48.676;9.034;2022-10-22T16:57:29;6.87;;;3.80;;
944;SDS011;459;48.676;9.034;2022-10-22T16:59:55;7.97;;;3.50;;
944;SDS011;459;48.676;9.034;2022-10-22T17:02:22;4.23;;;3.00;;
944;SDS011;459;48.676;9.034;2022-10-22T17:04:47;4.77;;;2.47;;
944;SDS011;459;48.676;9.034;2022-10-22T17:07:12;3.73;;;2.97;;
944;SDS011;459;48.676;9.034;2022-10-22T17:09:37;5.77;;;3.50;;
944;SDS011;459;48.676;9.034;2022-10-22T17:12:02;7.20;;;3.97;;
944;SDS011;459;48.676;9.034;2022-10-22T17:14:27;4.73;;;3.70;;
944;SDS011;459;48.676;9.034;2022-10-22T17:16:53;7.33;;;3.60;;